sensor_id;sensor_type;location;lat;lon;timestamp;pressure;altitude;pressure_sealevel;temperature;humidity
36014;BME280;22275;43.208;27.620;2023-05-13T00:01:11;101881.63;;;15.65;100.00
36014;BME280;22275;43.208;27.620;2023-05-13T00:03:38;101877.88;;;15.39;100.00
36014;BME280;22275;43.208;27.620;2023-05-13T00:06:06;101880.81;;;14.91;100.00
36014;BME280;22275;43.208;27.620;2023-05-13T00:08:33;101889.03;;;15.30;100.00
36014;BME280;22275;43.208;27.620;2023-05-13T00:11:02;101889.28;;;15.56;100.00
36014;BME280;22275;43.208;27.620;2023-05-13T00:13:30;101890.41;;;15.37;100.00
36014;BME280;22275;43.208;27.620;2023-05-13T00:15:57;101884.28;;;15.51;100.00
36014;BME280;22275;43.208;27.620;2023-05-13T00:18:24;101890.91;;;15.72;100.00
36014;BME280;22275;43.208;27.620;2023-05-13T00:20:52;101881.31;;;15.84;100.00
36014;BME280;22275;43.208;27.620;2023-05-13T00:23:18;101881.22;;;15.85;100.00
36014;BME280;22275;43.208;27.620;2023-05-13T00:25:46;101885.59;;;15.86;100.00
36014;BME280;22275;43.208;27.620;2023-05-13T00:28:14;101890.31;;;15.81;100.00
36014;BME280;22275;43.208;27.620;2023-05-13T00:30:42;101901.13;;;15.78;100.00
36014;BME280;22275;43.208;27.620;2023-05-13T00:33:10;101895.63;;;15.53;100.00
36014;BME280;22275;43.208;27.620;2023-05-13T00:35:37;101890.44;;;15.51;100.00
36014;BME280;22275;43.208;27.620;2023-05-13T00:38:05;101891.34;;;15.36;100.00
36014;BME280;22275;43.208;27.620;2023-05-13T00:40:35;101898.44;;;15.36;100.00
36014;BME280;22275;43.208;27.620;2023-05-13T00:43:04;101900.75;;;15.56;100.00
36014;BME280;22275;43.208;27.620;2023-05-13T00:45:34;101901.75;;;15.25;100.00
36014;BME280;22275;43.208;27.620;2023-05-13T00:48:04;101913.94;;;14.07;100.00
36014;BME280;22275;43.208;27.620;2023-05-13T00:50:32;101912.47;;;13.53;100.00
36014;BME280;22275;43.208;27.620;2023-05-13T00:52:59;101912.22;;;14.06;100.00
36014;BME280;22275;43.208;27.620;2023-05-13T00:55:26;101914.09;;;14.51;100.00
36014;BME280;22275;43.208;27.620;2023-05-13T00:57:53;101901.06;;;14.78;100.00
36014;BME280;22275;43.208;27.620;2023-05-13T01:00:21;101905.91;;;15.15;100.00
36014;BME280;22275;43.208;27.620;2023-05-13T01:02:56;101897.31;;;15.26;100.00
36014;BME280;22275;43.208;27.620;2023-05-13T01:05:30;101892.66;;;15.15;100.00
36014;BME280;22275;43.208;27.620;2023-05-13T01:08:03;101900.13;;;15.09;100.00
36014;BME280;22275;43.208;27.620;2023-05-13T01:10:33;101906.59;;;15.33;100.00
36014;BME280;22275;43.208;27.620;2023-05-13T01:13:03;101901.41;;;15.45;100.00
36014;BME280;22275;43.208;27.620;2023-05-13T01:15:38;101918.97;;;15.48;100.00
36014;BME280;22275;43.208;27.620;2023-05-13T01:18:08;101916.13;;;15.79;100.00
36014;BME280;22275;43.208;27.620;2023-05-13T01:20:36;101908.66;;;15.72;100.00
36014;BME280;22275;43.208;27.620;2023-05-13T01:23:05;101905.69;;;15.62;100.00
36014;BME280;22275;43.208;27.620;2023-05-13T01:25:32;101909.56;;;15.42;100.00
36014;BME280;22275;43.208;27.620;2023-05-13T01:27:59;101903.66;;;15.37;100.00
36014;BME280;22275;43.208;27.620;2023-05-13T01:30:26;101902.28;;;15.88;100.00
36014;BME280;22275;43.208;27.620;2023-05-13T01:32:53;101905.63;;;15.78;100.00
36014;BME280;22275;43.208;27.620;2023-05-13T01:35:22;101909.22;;;15.77;100.00
36014;BME280;22275;43.208;27.620;2023-05-13T01:37:50;101905.69;;;15.62;100.00
36014;BME280;22275;43.208;27.620;2023-05-13T01:40:20;101908.88;;;15.39;100.00
36014;BME280;22275;43.208;27.620;2023-05-13T01:42:47;101905.19;;;15.41;100.00
36014;BME280;22275;43.208;27.620;2023-05-13T01:45:14;101907.91;;;15.26;100.00
36014;BME280;22275;43.208;27.620;2023-05-13T01:47:42;101904.91;;;15.02;100.00
36014;BME280;22275;43.208;27.620;2023-05-13T01:50:09;101907.53;;;14.88;100.00
36014;BME280;22275;43.208;27.620;2023-05-13T01:52:37;101922.91;;;14.52;100.00
36014;BME280;22275;43.208;27.620;2023-05-13T01:55:04;101926.97;;;13.79;100.00
36014;BME280;22275;43.208;27.620;2023-05-13T01:57:33;101923.28;;;13.49;100.00
36014;BME280;22275;43.208;27.620;2023-05-13T02:00:00;101925.13;;;13.64;100.00
36014;BME280;22275;43.208;27.620;2023-05-13T02:02:28;101936.91;;;13.58;100.00
36014;BME280;22275;43.208;27.620;2023-05-13T02:04:56;101954.53;;;13.08;100.00
36014;BME280;22275;43.208;27.620;2023-05-13T02:07:24;101951.75;;;13.28;100.00
36014;BME280;22275;43.208;27.620;2023-05-13T02:09:51;101943.63;;;13.31;100.00
36014;BME280;22275;43.208;27.620;2023-05-13T02:12:24;101940.66;;;13.37;100.00
36014;BME280;22275;43.208;27.620;2023-05-13T02:14:53;101925.78;;;13.52;100.00
36014;BME280;22275;43.208;27.620;2023-05-13T02:17:20;101934.75;;;13.98;100.00
36014;BME280;22275;43.208;27.620;2023-05-13T02:19:47;101931.03;;;14.17;100.00
36014;BME280;22275;43.208;27.620;2023-05-13T02:22:15;101942.81;;;13.96;100.00
36014;BME280;22275;43.208;27.620;2023-05-13T02:24:42;101942.06;;;13.77;100.00
36014;BME280;22275;43.208;27.620;2023-05-13T02:27:09;101939.38;;;13.94;100.00
36014;BME280;22275;43.208;27.620;2023-05-13T02:29:37;101940.81;;;14.00;100.00
36014;BME280;22275;43.208;27.620;2023-05-13T02:32:06;101934.59;;;14.16;100.00
36014;BME280;22275;43.208;27.620;2023-05-13T02:34:34;101953.22;;;14.32;100.00
36014;BME280;22275;43.208;27.620;2023-05-13T02:37:01;101949.50;;;14.19;100.00
36014;BME280;22275;43.208;27.620;2023-05-13T02:39:28;101945.84;;;13.89;100.00
36014;BME280;22275;43.208;27.620;2023-05-13T02:41:55;101941.78;;;13.99;100.00
36014;BME280;22275;43.208;27.620;2023-05-13T02:44:22;101954.19;;;14.14;100.00
36014;BME280;22275;43.208;27.620;2023-05-13T02:46:49;101946.66;;;14.22;100.00
36014;BME280;22275;43.208;27.620;2023-05-13T02:49:18;101955.84;;;13.83;100.00
36014;BME280;22275;43.208;27.620;2023-05-13T02:51:45;101950.00;;;14.25;100.00
36014;BME280;22275;43.208;27.620;2023-05-13T02:54:12;101955.09;;;14.46;100.00
36014;BME280;22275;43.208;27.620;2023-05-13T02:56:38;101960.81;;;14.54;100.00
36014;BME280;22275;43.208;27.620;2023-05-13T02:59:06;101962.53;;;14.55;100.00
36014;BME280;22275;43.208;27.620;2023-05-13T03:01:33;101967.31;;;14.64;100.00
36014;BME280;22275;43.208;27.620;2023-05-13T03:04:00;101971.41;;;14.69;100.00
36014;BME280;22275;43.208;27.620;2023-05-13T03:06:29;101969.69;;;14.37;100.00
36014;BME280;22275;43.208;27.620;2023-05-13T03:08:56;101964.50;;;13.87;100.00
36014;BME280;22275;43.208;27.620;2023-05-13T03:11:23;101962.50;;;13.58;100.00
36014;BME280;22275;43.208;27.620;2023-05-13T03:13:51;101980.44;;;13.36;100.00
36014;BME280;22275;43.208;27.620;2023-05-13T03:16:18;101974.38;;;13.83;100.00
36014;BME280;22275;43.208;27.620;2023-05-13T03:18:45;101976.00;;;14.19;100.00
36014;BME280;22275;43.208;27.620;2023-05-13T03:21:13;101976.13;;;14.49;100.00
36014;BME280;22275;43.208;27.620;2023-05-13T03:23:41;101987.47;;;14.98;100.00
36014;BME280;22275;43.208;27.620;2023-05-13T03:26:09;101981.88;;;15.02;100.00
36014;BME280;22275;43.208;27.620;2023-05-13T03:28:36;101981.91;;;15.16;100.00
36014;BME280;22275;43.208;27.620;2023-05-13T03:31:03;101985.06;;;14.93;100.00
36014;BME280;22275;43.208;27.620;2023-05-13T03:33:30;101976.25;;;15.22;100.00
36014;BME280;22275;43.208;27.620;2023-05-13T03:35:57;101972.56;;;14.95;100.00
36014;BME280;22275;43.208;27.620;2023-05-13T03:38:24;101964.75;;;15.08;100.00
36014;BME280;22275;43.208;27.620;2023-05-13T03:40:53;101963.81;;;15.09;100.00
36014;BME280;22275;43.208;27.620;2023-05-13T03:43:20;101972.84;;;15.20;100.00
36014;BME280;22275;43.208;27.620;2023-05-13T03:45:47;101967.72;;;15.17;100.00
36014;BME280;22275;43.208;27.620;2023-05-13T03:48:16;101976.41;;;15.35;100.00
36014;BME280;22275;43.208;27.620;2023-05-13T03:50:43;101961.97;;;15.39;100.00
36014;BME280;22275;43.208;27.620;2023-05-13T03:53:11;101974.38;;;15.38;100.00
36014;BME280;22275;43.208;27.620;2023-05-13T03:55:37;101975.41;;;15.51;100.00
36014;BME280;22275;43.208;27.620;2023-05-13T03:58:11;101976.53;;;15.47;100.00
36014;BME280;22275;43.208;27.620;2023-05-13T04:00:39;101972.94;;;15.48;100.00
36014;BME280;22275;43.208;27.620;2023-05-13T04:03:06;101982.06;;;15.59;100.00
36014;BME280;22275;43.208;27.620;2023-05-13T04:05:33;101975.06;;;15.58;100.00
36014;BME280;22275;43.208;27.620;2023-05-13T04:08:01;101983.66;;;15.61;100.00
36014;BME280;22275;43.208;27.620;2023-05-13T04:10:28;101973.91;;;15.76;100.00
36014;BME280;22275;43.208;27.620;2023-05-13T04:12:55;101972.88;;;15.78;100.00
36014;BME280;22275;43.208;27.620;2023-05-13T04:15:23;101964.25;;;16.03;100.00
36014;BME280;22275;43.208;27.620;2023-05-13T04:17:51;101969.75;;;15.86;100.00
36014;BME280;22275;43.208;27.620;2023-05-13T04:20:18;101984.56;;;15.90;100.00
36014;BME280;22275;43.208;27.620;2023-05-13T04:22:47;101981.31;;;15.99;100.00
36014;BME280;22275;43.208;27.620;2023-05-13T04:25:14;101976.13;;;15.97;100.00
36014;BME280;22275;43.208;27.620;2023-05-13T04:27:42;101971.06;;;16.07;100.00
36014;BME280;22275;43.208;27.620;2023-05-13T04:30:09;101976.66;;;16.31;100.00
36014;BME280;22275;43.208;27.620;2023-05-13T04:32:38;101971.59;;;16.26;100.00
36014;BME280;22275;43.208;27.620;2023-05-13T04:35:06;101973.69;;;16.35;100.00
36014;BME280;22275;43.208;27.620;2023-05-13T04:37:33;101984.91;;;16.12;100.00
36014;BME280;22275;43.208;27.620;2023-05-13T04:40:01;102001.81;;;16.25;100.00
36014;BME280;22275;43.208;27.620;2023-05-13T04:42:28;102008.44;;;16.60;100.00
36014;BME280;22275;43.208;27.620;2023-05-13T04:44:55;102014.19;;;16.54;100.00
36014;BME280;22275;43.208;27.620;2023-05-13T04:47:22;102000.69;;;16.84;100.00
36014;BME280;22275;43.208;27.620;2023-05-13T04:49:51;102006.19;;;16.81;100.00
36014;BME280;22275;43.208;27.620;2023-05-13T04:52:18;102008.84;;;16.54;100.00
36014;BME280;22275;43.208;27.620;2023-05-13T04:54:45;102019.19;;;16.45;100.00
36014;BME280;22275;43.208;27.620;2023-05-13T04:57:12;102014.50;;;16.77;100.00
36014;BME280;22275;43.208;27.620;2023-05-13T04:59:40;102016.25;;;16.90;100.00
36014;BME280;22275;43.208;27.620;2023-05-13T05:02:07;102005.88;;;17.12;100.00
36014;BME280;22275;43.208;27.620;2023-05-13T05:04:34;102004.97;;;17.26;100.00
36014;BME280;22275;43.208;27.620;2023-05-13T05:07:03;102008.13;;;17.45;100.00
36014;BME280;22275;43.208;27.620;2023-05-13T05:09:29;102011.88;;;17.55;100.00
36014;BME280;22275;43.208;27.620;2023-05-13T05:11:57;102010.28;;;17.65;100.00
36014;BME280;22275;43.208;27.620;2023-05-13T05:14:24;102010.25;;;17.53;100.00
36014;BME280;22275;43.208;27.620;2023-05-13T05:16:51;102010.41;;;17.64;100.00
36014;BME280;22275;43.208;27.620;2023-05-13T05:19:19;102007.31;;;17.83;100.00
36014;BME280;22275;43.208;27.620;2023-05-13T05:21:48;102010.19;;;17.92;100.00
36014;BME280;22275;43.208;27.620;2023-05-13T05:24:17;102019.69;;;17.84;100.00
36014;BME280;22275;43.208;27.620;2023-05-13T05:26:44;102009.63;;;18.00;100.00
36014;BME280;22275;43.208;27.620;2023-05-13T05:29:11;102015.22;;;18.46;100.00
36014;BME280;22275;43.208;27.620;2023-05-13T05:31:38;102015.19;;;17.97;100.00
36014;BME280;22275;43.208;27.620;2023-05-13T05:34:05;102016.47;;;18.04;100.00
36014;BME280;22275;43.208;27.620;2023-05-13T05:36:32;102002.47;;;18.25;100.00
36014;BME280;22275;43.208;27.620;2023-05-13T05:39:00;102001.09;;;18.20;100.00
36014;BME280;22275;43.208;27.620;2023-05-13T05:41:29;101999.28;;;18.33;100.00
36014;BME280;22275;43.208;27.620;2023-05-13T05:43:56;102000.41;;;18.54;100.00
36014;BME280;22275;43.208;27.620;2023-05-13T05:46:23;102013.47;;;18.08;100.00
36014;BME280;22275;43.208;27.620;2023-05-13T05:48:50;102013.69;;;18.30;100.00
36014;BME280;22275;43.208;27.620;2023-05-13T05:51:17;102014.44;;;17.69;100.00
36014;BME280;22275;43.208;27.620;2023-05-13T05:53:44;102017.31;;;17.92;100.00
36014;BME280;22275;43.208;27.620;2023-05-13T05:56:12;102016.22;;;18.32;100.00
36014;BME280;22275;43.208;27.620;2023-05-13T05:58:40;102021.38;;;17.72;100.00
36014;BME280;22275;43.208;27.620;2023-05-13T06:01:08;102017.75;;;18.23;100.00
36014;BME280;22275;43.208;27.620;2023-05-13T06:03:35;102017.31;;;18.17;100.00
36014;BME280;22275;43.208;27.620;2023-05-13T06:06:03;102009.44;;;18.03;100.00
36014;BME280;22275;43.208;27.620;2023-05-13T06:08:30;102010.19;;;18.66;100.00
36014;BME280;22275;43.208;27.620;2023-05-13T06:10:58;102000.31;;;19.27;100.00
36014;BME280;22275;43.208;27.620;2023-05-13T06:13:25;102001.22;;;19.15;100.00
36014;BME280;22275;43.208;27.620;2023-05-13T06:15:54;101990.13;;;19.78;100.00
36014;BME280;22275;43.208;27.620;2023-05-13T06:18:21;101990.53;;;20.18;100.00
36014;BME280;22275;43.208;27.620;2023-05-13T06:20:48;101983.81;;;20.45;100.00
36014;BME280;22275;43.208;27.620;2023-05-13T06:23:16;101992.25;;;20.84;100.00
36014;BME280;22275;43.208;27.620;2023-05-13T06:25:43;101994.59;;;20.77;100.00
36014;BME280;22275;43.208;27.620;2023-05-13T06:28:11;101991.44;;;20.61;100.00
36014;BME280;22275;43.208;27.620;2023-05-13T06:30:38;101990.13;;;19.32;100.00
36014;BME280;22275;43.208;27.620;2023-05-13T06:33:07;101987.88;;;20.29;100.00
36014;BME280;22275;43.208;27.620;2023-05-13T06:35:37;102000.56;;;20.70;100.00
36014;BME280;22275;43.208;27.620;2023-05-13T06:38:04;101999.22;;;19.29;100.00
36014;BME280;22275;43.208;27.620;2023-05-13T06:40:31;101984.66;;;20.13;100.00
36014;BME280;22275;43.208;27.620;2023-05-13T06:42:59;101986.47;;;20.99;100.00
36014;BME280;22275;43.208;27.620;2023-05-13T06:45:26;101983.84;;;21.20;100.00
36014;BME280;22275;43.208;27.620;2023-05-13T06:47:53;101987.44;;;21.71;100.00
36014;BME280;22275;43.208;27.620;2023-05-13T06:50:22;101996.84;;;22.07;100.00
36014;BME280;22275;43.208;27.620;2023-05-13T06:52:49;102006.28;;;21.81;100.00
36014;BME280;22275;43.208;27.620;2023-05-13T06:55:16;102003.53;;;22.13;100.00
36014;BME280;22275;43.208;27.620;2023-05-13T06:57:44;102012.69;;;21.69;100.00
36014;BME280;22275;43.208;27.620;2023-05-13T07:00:12;102004.16;;;22.75;100.00
36014;BME280;22275;43.208;27.620;2023-05-13T07:02:39;102006.41;;;22.80;100.00
36014;BME280;22275;43.208;27.620;2023-05-13T07:05:07;102007.00;;;23.03;100.00
36014;BME280;22275;43.208;27.620;2023-05-13T07:07:36;101992.84;;;22.91;100.00
36014;BME280;22275;43.208;27.620;2023-05-13T07:10:03;101990.91;;;22.93;100.00
36014;BME280;22275;43.208;27.620;2023-05-13T07:12:30;101983.22;;;23.36;93.42
36014;BME280;22275;43.208;27.620;2023-05-13T07:14:58;101988.75;;;23.44;83.51
36014;BME280;22275;43.208;27.620;2023-05-13T07:17:25;101980.09;;;23.70;86.09
36014;BME280;22275;43.208;27.620;2023-05-13T07:19:52;101978.72;;;24.30;85.55
36014;BME280;22275;43.208;27.620;2023-05-13T07:22:19;101978.13;;;24.36;79.60
36014;BME280;22275;43.208;27.620;2023-05-13T07:24:48;101974.59;;;24.35;77.65
36014;BME280;22275;43.208;27.620;2023-05-13T07:27:15;101972.41;;;24.21;74.17
36014;BME280;22275;43.208;27.620;2023-05-13T07:29:42;101975.16;;;24.12;69.35
36014;BME280;22275;43.208;27.620;2023-05-13T07:32:09;101964.53;;;24.37;68.92
36014;BME280;22275;43.208;27.620;2023-05-13T07:34:36;101961.56;;;24.03;64.85
36014;BME280;22275;43.208;27.620;2023-05-13T07:37:04;101956.97;;;24.41;65.75
36014;BME280;22275;43.208;27.620;2023-05-13T07:39:31;101963.31;;;24.49;63.03
36014;BME280;22275;43.208;27.620;2023-05-13T07:42:00;101953.59;;;24.84;63.13
36014;BME280;22275;43.208;27.620;2023-05-13T07:44:27;101955.44;;;25.19;59.46
36014;BME280;22275;43.208;27.620;2023-05-13T07:46:54;101959.84;;;25.02;58.81
36014;BME280;22275;43.208;27.620;2023-05-13T07:49:21;101957.09;;;24.94;53.77
36014;BME280;22275;43.208;27.620;2023-05-13T07:51:48;101958.06;;;25.10;53.49
36014;BME280;22275;43.208;27.620;2023-05-13T07:54:15;101949.25;;;24.73;52.40
36014;BME280;22275;43.208;27.620;2023-05-13T07:56:43;101937.16;;;24.59;53.10
36014;BME280;22275;43.208;27.620;2023-05-13T07:59:12;101934.59;;;24.58;54.54
36014;BME280;22275;43.208;27.620;2023-05-13T08:01:40;101920.28;;;24.75;54.20
36014;BME280;22275;43.208;27.620;2023-05-13T08:04:08;101920.69;;;24.63;52.91
36014;BME280;22275;43.208;27.620;2023-05-13T08:06:35;101912.53;;;24.90;53.80
36014;BME280;22275;43.208;27.620;2023-05-13T08:09:02;101905.34;;;24.28;53.22
36014;BME280;22275;43.208;27.620;2023-05-13T08:11:29;101904.25;;;24.38;53.18
36014;BME280;22275;43.208;27.620;2023-05-13T08:13:57;101925.41;;;24.33;54.20
36014;BME280;22275;43.208;27.620;2023-05-13T08:16:25;101914.31;;;24.99;53.18
36014;BME280;22275;43.208;27.620;2023-05-13T08:18:52;101915.31;;;25.67;54.75
36014;BME280;22275;43.208;27.620;2023-05-13T08:21:19;101910.59;;;25.43;52.41
36014;BME280;22275;43.208;27.620;2023-05-13T08:23:48;101919.72;;;26.02;50.72
36014;BME280;22275;43.208;27.620;2023-05-13T08:26:16;101918.00;;;26.35;51.95
36014;BME280;22275;43.208;27.620;2023-05-13T08:28:43;101911.88;;;25.83;48.96
36014;BME280;22275;43.208;27.620;2023-05-13T08:31:10;101916.19;;;25.67;49.32
36014;BME280;22275;43.208;27.620;2023-05-13T08:33:39;101902.44;;;26.28;49.46
36014;BME280;22275;43.208;27.620;2023-05-13T08:36:08;101904.84;;;26.40;49.54
36014;BME280;22275;43.208;27.620;2023-05-13T08:38:36;101901.31;;;26.47;50.67
36014;BME280;22275;43.208;27.620;2023-05-13T08:41:03;101905.78;;;26.14;49.29
36014;BME280;22275;43.208;27.620;2023-05-13T08:43:32;101909.75;;;26.36;47.32
36014;BME280;22275;43.208;27.620;2023-05-13T08:46:02;101906.13;;;27.18;46.65
36014;BME280;22275;43.208;27.620;2023-05-13T08:48:30;101894.66;;;26.17;46.86
36014;BME280;22275;43.208;27.620;2023-05-13T08:50:59;101903.06;;;26.14;48.17
36014;BME280;22275;43.208;27.620;2023-05-13T08:53:26;101906.31;;;26.18;47.95
36014;BME280;22275;43.208;27.620;2023-05-13T08:55:54;101904.53;;;25.67;46.89
36014;BME280;22275;43.208;27.620;2023-05-13T08:58:22;101906.59;;;25.73;46.65
36014;BME280;22275;43.208;27.620;2023-05-13T09:00:51;101910.53;;;26.20;44.96
36014;BME280;22275;43.208;27.620;2023-05-13T09:03:19;101897.97;;;26.11;46.10
36014;BME280;22275;43.208;27.620;2023-05-13T09:05:46;101897.78;;;26.55;45.66
36014;BME280;22275;43.208;27.620;2023-05-13T09:08:15;101910.84;;;27.08;46.30
36014;BME280;22275;43.208;27.620;2023-05-13T09:10:41;101906.13;;;27.10;44.22
36014;BME280;22275;43.208;27.620;2023-05-13T09:13:09;101908.84;;;27.02;44.02
36014;BME280;22275;43.208;27.620;2023-05-13T09:15:36;101900.53;;;27.11;44.75
36014;BME280;22275;43.208;27.620;2023-05-13T09:18:06;101901.38;;;27.12;44.55
36014;BME280;22275;43.208;27.620;2023-05-13T09:20:34;101905.38;;;27.56;43.10
36014;BME280;22275;43.208;27.620;2023-05-13T09:23:01;101902.00;;;27.54;43.99
36014;BME280;22275;43.208;27.620;2023-05-13T09:25:30;101899.34;;;27.14;43.07
36014;BME280;22275;43.208;27.620;2023-05-13T09:27:57;101903.41;;;26.86;43.57
36014;BME280;22275;43.208;27.620;2023-05-13T09:30:26;101894.94;;;26.97;41.91
36014;BME280;22275;43.208;27.620;2023-05-13T09:33:05;101891.66;;;28.13;41.09
36014;BME280;22275;43.208;27.620;2023-05-13T09:35:33;101899.63;;;27.59;42.18
36014;BME280;22275;43.208;27.620;2023-05-13T09:38:00;101898.50;;;27.13;42.21
36014;BME280;22275;43.208;27.620;2023-05-13T09:40:39;101897.16;;;26.85;43.30
36014;BME280;22275;43.208;27.620;2023-05-13T09:43:06;101896.44;;;26.09;41.80
36014;BME280;22275;43.208;27.620;2023-05-13T09:45:33;101898.16;;;27.08;41.29
36014;BME280;22275;43.208;27.620;2023-05-13T09:48:01;101902.72;;;27.32;41.67
36014;BME280;22275;43.208;27.620;2023-05-13T09:50:30;101896.13;;;27.26;41.23
36014;BME280;22275;43.208;27.620;2023-05-13T09:52:57;101898.06;;;27.73;39.97
36014;BME280;22275;43.208;27.620;2023-05-13T09:55:24;101895.47;;;27.87;41.20
36014;BME280;22275;43.208;27.620;2023-05-13T09:57:53;101876.38;;;28.20;40.01
36014;BME280;22275;43.208;27.620;2023-05-13T10:00:21;101880.69;;;27.51;40.23
36014;BME280;22275;43.208;27.620;2023-05-13T10:02:48;101882.69;;;27.65;40.04
36014;BME280;22275;43.208;27.620;2023-05-13T10:05:15;101888.31;;;27.56;44.43
36014;BME280;22275;43.208;27.620;2023-05-13T10:07:43;101883.00;;;27.78;40.60
36014;BME280;22275;43.208;27.620;2023-05-13T10:10:10;101878.38;;;28.26;38.52
36014;BME280;22275;43.208;27.620;2023-05-13T10:12:38;101880.16;;;28.03;40.56
36014;BME280;22275;43.208;27.620;2023-05-13T10:15:09;101881.09;;;28.26;40.01
36014;BME280;22275;43.208;27.620;2023-05-13T10:17:37;101875.81;;;28.32;40.66
36014;BME280;22275;43.208;27.620;2023-05-13T10:20:05;101869.22;;;28.49;40.16
36014;BME280;22275;43.208;27.620;2023-05-13T10:22:32;101868.03;;;27.90;41.20
36014;BME280;22275;43.208;27.620;2023-05-13T10:25:01;101867.50;;;28.03;39.29
36014;BME280;22275;43.208;27.620;2023-05-13T10:27:31;101868.03;;;27.44;42.60
36014;BME280;22275;43.208;27.620;2023-05-13T10:29:59;101864.47;;;27.35;42.25
36014;BME280;22275;43.208;27.620;2023-05-13T10:32:29;101870.56;;;27.29;41.62
36014;BME280;22275;43.208;27.620;2023-05-13T10:35:00;101862.81;;;27.18;41.92
36014;BME280;22275;43.208;27.620;2023-05-13T10:38:00;101859.75;;;27.29;41.25
36014;BME280;22275;43.208;27.620;2023-05-13T10:41:00;101857.94;;;27.76;41.78
36014;BME280;22275;43.208;27.620;2023-05-13T10:43:33;101844.50;;;27.91;41.89
36014;BME280;22275;43.208;27.620;2023-05-13T10:46:03;101842.72;;;27.12;40.73
36014;BME280;22275;43.208;27.620;2023-05-13T10:48:39;101840.09;;;27.51;41.08
36014;BME280;22275;43.208;27.620;2023-05-13T10:51:08;101842.91;;;26.95;43.12
36014;BME280;22275;43.208;27.620;2023-05-13T10:53:37;101845.22;;;26.33;41.77
36014;BME280;22275;43.208;27.620;2023-05-13T10:56:09;101835.78;;;26.69;42.19
36014;BME280;22275;43.208;27.620;2023-05-13T10:58:36;101841.03;;;27.03;43.53
36014;BME280;22275;43.208;27.620;2023-05-13T11:01:13;101855.66;;;26.20;42.40
36014;BME280;22275;43.208;27.620;2023-05-13T11:03:44;101853.00;;;26.36;43.07
36014;BME280;22275;43.208;27.620;2023-05-13T11:06:16;101856.44;;;26.78;42.65
36014;BME280;22275;43.208;27.620;2023-05-13T11:08:44;101859.78;;;27.13;42.97
36014;BME280;22275;43.208;27.620;2023-05-13T11:13:53;101855.53;;;27.43;40.87
36014;BME280;22275;43.208;27.620;2023-05-13T11:16:20;101856.00;;;27.54;42.07
36014;BME280;22275;43.208;27.620;2023-05-13T11:18:49;101856.38;;;27.43;42.09
36014;BME280;22275;43.208;27.620;2023-05-13T11:21:16;101847.22;;;27.91;41.24
36014;BME280;22275;43.208;27.620;2023-05-13T11:23:50;101848.59;;;27.87;40.30
36014;BME280;22275;43.208;27.620;2023-05-13T11:26:17;101845.06;;;27.23;41.49
36014;BME280;22275;43.208;27.620;2023-05-13T11:28:52;101844.38;;;27.29;40.32
36014;BME280;22275;43.208;27.620;2023-05-13T11:31:19;101851.69;;;26.80;40.98
36014;BME280;22275;43.208;27.620;2023-05-13T11:34:07;101843.06;;;26.45;40.55
36014;BME280;22275;43.208;27.620;2023-05-13T11:36:35;101848.88;;;27.61;39.83
36014;BME280;22275;43.208;27.620;2023-05-13T11:39:05;101842.59;;;28.00;40.00
36014;BME280;22275;43.208;27.620;2023-05-13T11:41:32;101841.72;;;27.68;39.77
36014;BME280;22275;43.208;27.620;2023-05-13T11:44:00;101852.38;;;26.99;41.19
36014;BME280;22275;43.208;27.620;2023-05-13T11:46:28;101848.56;;;27.40;39.39
36014;BME280;22275;43.208;27.620;2023-05-13T11:48:55;101849.78;;;27.13;38.73
36014;BME280;22275;43.208;27.620;2023-05-13T11:51:23;101856.66;;;27.56;39.64
36014;BME280;22275;43.208;27.620;2023-05-13T11:53:51;101860.53;;;27.62;38.21
36014;BME280;22275;43.208;27.620;2023-05-13T11:56:25;101870.34;;;26.17;40.15
36014;BME280;22275;43.208;27.620;2023-05-13T11:58:52;101866.53;;;26.52;39.44
36014;BME280;22275;43.208;27.620;2023-05-13T12:01:19;101854.72;;;27.18;39.34
36014;BME280;22275;43.208;27.620;2023-05-13T12:03:46;101864.00;;;27.86;39.76
36014;BME280;22275;43.208;27.620;2023-05-13T12:06:13;101876.09;;;27.98;39.95
36014;BME280;22275;43.208;27.620;2023-05-13T12:08:45;101876.38;;;28.20;39.06
36014;BME280;22275;43.208;27.620;2023-05-13T12:11:12;101874.09;;;28.31;38.44
36014;BME280;22275;43.208;27.620;2023-05-13T12:13:40;101871.63;;;28.22;38.29
36014;BME280;22275;43.208;27.620;2023-05-13T12:16:07;101868.78;;;28.46;38.59
36014;BME280;22275;43.208;27.620;2023-05-13T12:18:35;101866.53;;;27.88;39.23
36014;BME280;22275;43.208;27.620;2023-05-13T12:21:12;101860.47;;;27.07;39.26
36014;BME280;22275;43.208;27.620;2023-05-13T12:23:39;101858.25;;;27.26;40.12
36014;BME280;22275;43.208;27.620;2023-05-13T12:26:07;101857.69;;;27.55;40.13
36014;BME280;22275;43.208;27.620;2023-05-13T12:28:34;101843.50;;;27.37;39.84
36014;BME280;22275;43.208;27.620;2023-05-13T12:31:03;101843.72;;;27.74;39.41
36014;BME280;22275;43.208;27.620;2023-05-13T12:33:31;101845.00;;;27.56;39.95
36014;BME280;22275;43.208;27.620;2023-05-13T12:36:16;101845.75;;;27.80;38.99
36014;BME280;22275;43.208;27.620;2023-05-13T12:38:58;101839.00;;;28.07;38.14
36014;BME280;22275;43.208;27.620;2023-05-13T12:41:29;101833.75;;;28.14;39.54
36014;BME280;22275;43.208;27.620;2023-05-13T12:43:57;101842.63;;;27.61;39.14